createdAt,value
2022-11-24T00:01:49.059Z,12.73
2022-11-24T00:04:17.894Z,9.37
2022-11-24T00:06:48.082Z,12.47
2022-11-24T00:09:17.078Z,10.30
2022-11-24T00:11:45.905Z,10.10
2022-11-24T00:14:14.862Z,11.90
2022-11-24T00:16:44.103Z,10.17
2022-11-24T00:19:18.373Z,9.87
2022-11-24T00:21:49.943Z,11.43
2022-11-24T00:24:18.925Z,11.63
2022-11-24T00:26:47.886Z,9.10
2022-11-24T00:29:16.903Z,11.33
2022-11-24T00:31:45.718Z,11.93
2022-11-24T00:34:16.113Z,8.80
2022-11-24T00:36:45.086Z,10.57
2022-11-24T00:39:17.448Z,8.00
2022-11-24T00:41:46.387Z,9.07
2022-11-24T00:44:15.235Z,9.53
2022-11-24T00:46:44.211Z,8.83
2022-11-24T00:49:13.176Z,8.63
2022-11-24T00:51:42.110Z,10.10
2022-11-24T00:54:10.981Z,8.83
2022-11-24T00:56:41.182Z,9.20
2022-11-24T00:59:10.245Z,11.13
2022-11-24T01:01:39.220Z,7.73
2022-11-24T01:04:08.124Z,8.27
2022-11-24T01:06:38.154Z,12.63
2022-11-24T01:09:06.978Z,9.27
2022-11-24T01:11:51.385Z,7.80
2022-11-24T01:14:22.153Z,8.07
2022-11-24T01:16:51.175Z,10.33
2022-11-24T01:19:20.397Z,10.30
2022-11-24T01:21:49.611Z,8.07
2022-11-24T01:24:20.537Z,9.90
2022-11-24T01:26:49.329Z,7.87
2022-11-24T01:29:18.133Z,10.37
2022-11-24T01:31:48.344Z,6.43
2022-11-24T01:34:17.188Z,8.07
2022-11-24T01:36:46.144Z,10.70
2022-11-24T01:39:15.102Z,7.37
2022-11-24T01:41:44.290Z,8.57
2022-11-24T01:44:25.724Z,8.43
2022-11-24T01:47:02.000Z,7.00
2022-11-24T01:49:41.061Z,8.47
2022-11-24T01:52:17.259Z,7.43
2022-11-24T01:54:52.914Z,8.10
2022-11-24T01:57:35.059Z,6.40
2022-11-24T02:00:30.247Z,7.90
2022-11-24T02:03:01.407Z,8.93
2022-11-24T02:06:00.638Z,7.37
2022-11-24T02:08:39.681Z,9.30
2022-11-24T02:11:09.482Z,6.27
2022-11-24T02:13:41.350Z,8.80
2022-11-24T02:16:13.636Z,7.23
2022-11-24T02:18:45.477Z,8.90
2022-11-24T02:21:17.693Z,6.43
2022-11-24T02:23:57.035Z,8.67
2022-11-24T02:26:47.373Z,5.67
2022-11-24T02:29:17.053Z,6.90
2022-11-24T02:31:52.543Z,5.57
2022-11-24T02:34:21.522Z,6.03
2022-11-24T02:36:50.494Z,5.20
2022-11-24T02:39:19.633Z,4.73
2022-11-24T02:41:58.238Z,5.67
2022-11-24T02:44:34.440Z,6.83
2022-11-24T02:47:06.997Z,6.77
2022-11-24T02:49:36.141Z,4.53
2022-11-24T02:52:05.940Z,5.90
2022-11-24T02:54:35.649Z,7.57
2022-11-24T02:57:06.572Z,7.27
2022-11-24T02:59:35.504Z,6.27
2022-11-24T03:02:12.591Z,6.37
2022-11-24T03:04:41.494Z,4.93
2022-11-24T03:07:10.963Z,4.77
2022-11-24T03:09:39.886Z,8.47
2022-11-24T03:12:10.505Z,6.23
2022-11-24T03:14:39.273Z,5.50
2022-11-24T03:17:08.204Z,4.70
2022-11-24T03:19:37.012Z,5.97
2022-11-24T03:22:06.010Z,7.53
2022-11-24T03:24:35.072Z,5.30
2022-11-24T03:27:04.050Z,5.30
2022-11-24T03:29:34.600Z,5.57
2022-11-24T03:32:03.731Z,5.47
2022-11-24T03:34:41.515Z,6.77
2022-11-24T03:37:15.959Z,7.57
2022-11-24T03:39:49.780Z,7.13
2022-11-24T03:42:24.053Z,7.13
2022-11-24T03:44:54.242Z,6.60
2022-11-24T03:47:23.143Z,5.37
2022-11-24T03:49:52.025Z,6.70
2022-11-24T03:52:20.924Z,5.80
2022-11-24T03:56:10.641Z,5.50
2022-11-24T03:58:40.387Z,5.67
2022-11-24T04:01:10.816Z,8.53
2022-11-24T04:03:39.646Z,6.27
2022-11-24T04:06:08.472Z,10.37
2022-11-24T04:08:37.309Z,5.37
2022-11-24T04:11:07.235Z,6.83
2022-11-24T04:13:35.141Z,6.27
2022-11-24T04:16:07.716Z,6.43
2022-11-24T04:18:38.063Z,8.33
2022-11-24T04:21:07.240Z,6.17
2022-11-24T04:23:36.059Z,5.67
2022-11-24T04:26:04.931Z,6.47
2022-11-24T04:28:33.689Z,6.90
2022-11-24T04:31:04.237Z,6.23
2022-11-24T04:33:33.315Z,6.97
2022-11-24T04:36:03.651Z,5.53
2022-11-24T04:39:25.819Z,8.80
2022-11-24T04:41:21.336Z,7.43
2022-11-24T04:43:51.382Z,5.80
2022-11-24T04:46:20.398Z,6.83
2022-11-24T04:48:49.309Z,5.33
2022-11-24T04:51:19.511Z,6.23
2022-11-24T04:53:53.058Z,9.40
2022-11-24T04:56:22.009Z,6.40
2022-11-24T04:58:52.945Z,6.67
2022-11-24T05:01:21.876Z,8.33
2022-11-24T05:03:50.785Z,9.70
2022-11-24T05:06:21.033Z,6.57
2022-11-24T05:08:51.146Z,7.37
2022-11-24T05:11:20.955Z,7.07
2022-11-24T05:13:57.979Z,6.73
2022-11-24T05:16:27.415Z,9.27
2022-11-24T05:18:56.169Z,6.87
2022-11-24T05:21:26.449Z,6.63
2022-11-24T05:23:55.333Z,9.83
2022-11-24T05:26:29.771Z,7.17
2022-11-24T05:28:58.967Z,10.77
2022-11-24T05:31:28.036Z,8.33
2022-11-24T05:33:57.101Z,8.23
2022-11-24T05:36:44.876Z,7.83
2022-11-24T05:39:13.626Z,7.13
2022-11-24T05:41:44.086Z,8.50
2022-11-24T05:44:38.351Z,9.93
2022-11-24T05:47:29.802Z,7.47
2022-11-24T05:50:01.010Z,6.77
2022-11-24T05:52:31.214Z,7.23
2022-11-24T05:55:00.195Z,11.73
2022-11-24T05:57:29.342Z,8.10
2022-11-24T06:00:01.394Z,9.00
2022-11-24T06:02:30.754Z,7.77
2022-11-24T06:05:00.625Z,8.17
2022-11-24T06:07:30.921Z,10.73
2022-11-24T06:09:59.643Z,9.50
2022-11-24T06:12:28.381Z,9.03
2022-11-24T06:14:57.362Z,11.70
2022-11-24T06:17:26.569Z,9.93
2022-11-24T06:19:55.315Z,11.40
2022-11-24T06:22:24.166Z,9.73
2022-11-24T06:24:55.555Z,9.07
2022-11-24T06:27:25.043Z,8.87
2022-11-24T06:29:57.422Z,8.23
2022-11-24T06:32:29.488Z,11.27
2022-11-24T06:34:58.241Z,10.47
2022-11-24T06:37:26.974Z,11.93
2022-11-24T06:39:57.220Z,9.80
2022-11-24T06:42:25.959Z,10.43
2022-11-24T06:44:54.819Z,11.00
2022-11-24T06:47:23.655Z,11.03
2022-11-24T06:49:52.710Z,10.67
2022-11-24T06:52:21.664Z,10.20
2022-11-24T06:54:50.387Z,11.83
2022-11-24T06:57:20.598Z,14.10
2022-11-24T06:59:49.947Z,9.70
2022-11-24T07:02:19.085Z,10.80
2022-11-24T07:04:47.848Z,9.43
2022-11-24T07:07:16.641Z,11.00
2022-11-24T07:09:46.471Z,10.87
2022-11-24T07:12:15.198Z,11.47
2022-11-24T07:14:45.439Z,10.90
2022-11-24T07:17:15.259Z,12.83
2022-11-24T07:19:45.207Z,11.53
2022-11-24T07:22:13.973Z,16.03
2022-11-24T07:24:42.691Z,13.23
2022-11-24T07:27:11.419Z,14.07
2022-11-24T07:29:40.162Z,14.87
2022-11-24T07:32:10.441Z,12.10
2022-11-24T07:34:39.270Z,14.47
2022-11-24T07:37:08.209Z,14.50
2022-11-24T07:39:37.110Z,12.43
2022-11-24T07:42:06.899Z,11.23
2022-11-24T07:44:35.842Z,17.07
2022-11-24T07:47:05.025Z,15.70
2022-11-24T07:49:35.185Z,13.30
2022-11-24T07:52:04.635Z,12.03
2022-11-24T07:54:33.667Z,14.83
2022-11-24T07:57:02.689Z,17.93
2022-11-24T07:59:31.361Z,15.77
2022-11-24T08:02:00.170Z,14.53
2022-11-24T08:04:29.095Z,16.87
2022-11-24T08:06:59.364Z,15.37
2022-11-24T08:09:28.231Z,14.80
2022-11-24T08:11:57.159Z,16.97
2022-11-24T08:14:25.994Z,13.67
2022-11-24T08:16:54.836Z,14.67
2022-11-24T08:19:24.070Z,13.83
2022-11-24T08:21:52.889Z,19.57
2022-11-24T08:24:24.299Z,16.37
2022-11-24T08:26:53.070Z,18.60
2022-11-24T08:29:21.940Z,17.90
2022-11-24T08:31:50.895Z,21.90
2022-11-24T08:34:19.714Z,17.90
2022-11-24T08:36:48.556Z,19.47
2022-11-24T08:39:17.493Z,19.93
2022-11-24T08:41:48.232Z,16.07
2022-11-24T08:44:18.602Z,21.27
2022-11-24T08:46:47.739Z,15.57
2022-11-24T08:49:16.772Z,21.20
2022-11-24T08:51:47.086Z,18.23
2022-11-24T08:54:18.733Z,16.03
2022-11-24T08:56:51.547Z,18.90
2022-11-24T08:59:20.424Z,15.73
2022-11-24T09:01:49.753Z,16.40
2022-11-24T09:04:18.755Z,15.77
2022-11-24T09:06:47.507Z,15.93
2022-11-24T09:09:16.350Z,16.27
2022-11-24T09:11:45.265Z,16.10
2022-11-24T09:14:15.487Z,17.10
2022-11-24T09:16:44.278Z,16.17
2022-11-24T09:19:13.241Z,17.63
2022-11-24T09:21:42.238Z,21.23
2022-11-24T09:24:12.382Z,20.90
2022-11-24T09:26:46.174Z,18.03
2022-11-24T09:29:18.205Z,20.67
2022-11-24T09:31:47.151Z,18.00
2022-11-24T09:34:28.921Z,18.30
2022-11-24T09:36:58.799Z,22.27
2022-11-24T09:39:27.807Z,21.00
2022-11-24T09:42:20.953Z,20.70
2022-11-24T09:45:57.009Z,23.07
2022-11-24T09:48:27.570Z,28.20
2022-11-24T09:50:59.981Z,30.53
2022-11-24T09:53:36.023Z,35.17
2022-11-24T09:56:23.637Z,42.93
2022-11-24T09:58:58.826Z,50.17
2022-11-24T10:01:37.093Z,44.20
2022-11-24T10:04:16.284Z,48.97
2022-11-24T10:07:00.422Z,30.73
2022-11-24T10:09:56.572Z,32.17
2022-11-24T10:12:48.202Z,37.07
2022-11-24T10:15:43.748Z,33.47
2022-11-24T10:18:37.324Z,30.90
2022-11-24T10:21:30.817Z,27.27
2022-11-24T10:24:32.330Z,24.57
2022-11-24T10:27:20.839Z,32.60
2022-11-24T10:29:55.374Z,30.10
2022-11-24T10:32:32.656Z,32.97
2022-11-24T10:35:37.030Z,35.90
2022-11-24T10:38:31.696Z,32.73
2022-11-24T10:41:12.056Z,31.73
2022-11-24T10:43:44.352Z,37.37
2022-11-24T10:46:24.224Z,27.23
2022-11-24T10:48:59.804Z,32.03
2022-11-24T10:52:02.417Z,26.23
2022-11-24T10:54:31.276Z,30.37
2022-11-24T10:57:00.446Z,28.00
2022-11-24T10:59:40.425Z,29.83
2022-11-24T11:02:35.198Z,26.40
2022-11-24T11:05:42.405Z,26.37
2022-11-24T11:08:28.007Z,25.87
2022-11-24T11:11:20.794Z,23.73
2022-11-24T11:14:03.440Z,21.97
2022-11-24T11:16:39.912Z,34.67
2022-11-24T11:19:48.903Z,31.30
2022-11-24T11:22:27.932Z,22.90
2022-11-24T11:25:21.454Z,30.10
2022-11-24T11:27:51.130Z,20.83
2022-11-24T11:36:17.155Z,20.67
2022-11-24T11:38:49.000Z,19.63
2022-11-24T11:41:26.899Z,24.80
2022-11-24T11:44:16.744Z,18.63
2022-11-24T11:46:47.406Z,17.93
2022-11-24T11:49:18.178Z,24.03
2022-11-24T11:52:24.356Z,22.90
2022-11-24T11:55:38.207Z,17.20
2022-11-24T11:58:45.707Z,22.33
2022-11-24T12:01:51.503Z,17.57
2022-11-24T12:04:43.708Z,18.33
2022-11-24T12:07:37.959Z,15.33
2022-11-24T12:10:22.718Z,15.77
2022-11-24T12:13:09.005Z,16.97
2022-11-24T12:15:46.194Z,12.97
2022-11-24T12:21:34.420Z,18.03
2022-11-24T12:24:17.217Z,17.80
2022-11-24T12:26:53.659Z,14.20
2022-11-24T12:29:55.081Z,15.77
2022-11-24T12:32:47.178Z,9.60
2022-11-24T12:35:28.876Z,13.90
2022-11-24T12:38:33.123Z,17.37
2022-11-24T12:41:41.286Z,14.23
2022-11-24T12:44:32.014Z,11.27
2022-11-24T12:47:15.475Z,14.87
2022-11-24T12:50:02.576Z,13.30
2022-11-24T12:52:39.463Z,17.77
2022-11-24T12:55:19.530Z,14.63
2022-11-24T12:58:00.454Z,12.13
2022-11-24T13:00:39.116Z,14.00
2022-11-24T13:03:26.934Z,13.80
2022-11-24T13:06:03.620Z,18.73
2022-11-24T13:08:33.512Z,11.37
2022-11-24T13:11:49.808Z,15.43
2022-11-24T13:14:23.695Z,15.23
2022-11-24T13:19:51.326Z,15.70
2022-11-24T13:22:27.352Z,15.80
2022-11-24T13:25:20.453Z,13.80
2022-11-24T13:27:57.741Z,21.43
2022-11-24T13:31:12.657Z,12.77
2022-11-24T13:33:41.925Z,15.90
2022-11-24T13:36:34.071Z,13.17
2022-11-24T13:39:06.302Z,17.90
2022-11-24T13:42:07.436Z,18.20
2022-11-24T13:44:49.847Z,19.07
2022-11-24T13:47:40.718Z,18.43
2022-11-24T13:50:22.446Z,23.27
2022-11-24T13:53:01.129Z,17.40
2022-11-24T13:55:38.866Z,25.57
2022-11-24T13:58:38.590Z,17.83
2022-11-24T14:01:21.377Z,13.77
2022-11-24T14:04:31.612Z,15.80
2022-11-24T14:07:08.657Z,19.77
2022-11-24T14:09:45.824Z,15.93
2022-11-24T14:12:19.206Z,18.17
2022-11-24T14:14:50.266Z,22.17
2022-11-24T14:17:28.930Z,18.70
2022-11-24T14:19:59.616Z,13.43
2022-11-24T14:22:37.819Z,11.17
2022-11-24T14:25:08.764Z,17.50
2022-11-24T14:27:40.211Z,23.77
2022-11-24T14:30:21.771Z,19.10
2022-11-24T14:33:01.558Z,18.93
2022-11-24T14:35:33.541Z,24.60
2022-11-24T14:38:05.389Z,19.20
2022-11-24T14:40:44.512Z,13.77
2022-11-24T14:43:23.045Z,12.93
2022-11-24T14:45:55.597Z,18.53
2022-11-24T14:48:30.197Z,16.77
2022-11-24T14:51:10.104Z,17.37
2022-11-24T14:53:43.178Z,21.17
2022-11-24T14:56:25.997Z,16.77
2022-11-24T14:58:59.348Z,13.37
2022-11-24T15:01:37.369Z,19.13
2022-11-24T15:04:46.723Z,15.93
2022-11-24T15:07:24.681Z,18.87
2022-11-24T15:09:58.618Z,14.57
2022-11-24T15:12:34.829Z,16.73
2022-11-24T15:15:08.087Z,20.47
2022-11-24T15:17:37.011Z,19.10
2022-11-24T15:20:18.362Z,15.63
2022-11-24T15:22:47.196Z,16.67
2022-11-24T15:25:33.637Z,15.53
2022-11-24T15:28:02.954Z,18.17
2022-11-24T15:30:36.027Z,12.97
2022-11-24T15:33:14.342Z,14.63
2022-11-24T15:35:45.380Z,17.83
2022-11-24T15:38:15.492Z,18.03
2022-11-24T15:40:47.390Z,18.50
2022-11-24T15:48:18.371Z,21.87
2022-11-24T15:50:49.296Z,16.87
2022-11-24T15:53:23.713Z,15.80
2022-11-24T15:55:54.167Z,18.07
2022-11-24T15:58:25.654Z,17.23
2022-11-24T16:00:54.500Z,16.97
2022-11-24T16:03:46.312Z,16.73
2022-11-24T16:06:23.656Z,13.17
2022-11-24T16:08:52.898Z,24.10
2022-11-24T16:11:23.422Z,17.40
2022-11-24T16:13:53.711Z,13.50
2022-11-24T16:16:24.893Z,12.67
2022-11-24T16:18:55.450Z,19.47
2022-11-24T16:21:24.874Z,17.00
2022-11-24T16:23:53.821Z,20.50
2022-11-24T16:26:22.872Z,14.83
2022-11-24T16:28:51.680Z,15.80
2022-11-24T16:31:23.948Z,17.97
2022-11-24T16:33:54.093Z,14.03
2022-11-24T16:36:25.377Z,17.27
2022-11-24T16:38:55.297Z,18.93
2022-11-24T16:41:25.211Z,19.53
2022-11-24T16:43:55.857Z,13.03
2022-11-24T16:46:27.050Z,16.10
2022-11-24T16:49:01.684Z,12.50
2022-11-24T16:51:34.978Z,16.07
2022-11-24T16:54:05.231Z,15.97
2022-11-24T16:56:34.801Z,18.87
2022-11-24T16:59:03.805Z,17.53
2022-11-24T17:01:33.930Z,16.90
2022-11-24T17:04:08.258Z,14.50
2022-11-24T17:06:41.397Z,19.53
2022-11-24T17:09:10.359Z,13.77
2022-11-24T17:11:39.751Z,14.17
2022-11-24T17:14:08.616Z,13.57
2022-11-24T17:16:40.666Z,15.27
2022-11-24T17:19:10.892Z,15.70
2022-11-24T17:21:40.318Z,20.60
2022-11-24T17:24:15.567Z,16.03
2022-11-24T17:26:48.717Z,18.63
2022-11-24T17:29:18.157Z,24.07
2022-11-24T17:31:47.621Z,24.90
2022-11-24T17:34:17.872Z,30.37
2022-11-24T17:36:46.776Z,40.07
2022-11-24T17:39:18.007Z,41.87
2022-11-24T17:41:49.770Z,37.23
2022-11-24T17:44:18.756Z,42.97
2022-11-24T17:46:47.910Z,54.37
2022-11-24T17:49:18.531Z,56.50
2022-11-24T17:51:50.693Z,23.43
2022-11-24T17:54:45.453Z,22.83
2022-11-24T17:57:10.657Z,29.13
2022-11-24T17:59:40.093Z,25.70
2022-11-24T18:02:11.560Z,31.93
2022-11-24T18:04:41.945Z,24.43
2022-11-24T18:07:11.294Z,40.77
2022-11-24T18:09:40.348Z,40.23
2022-11-24T18:12:15.623Z,34.93
2022-11-24T18:15:02.916Z,51.97
2022-11-24T18:17:36.688Z,59.43
2022-11-24T18:20:12.353Z,47.80
2022-11-24T18:23:04.680Z,42.03
2022-11-24T18:25:42.842Z,71.30
2022-11-24T18:28:14.629Z,40.47
2022-11-24T18:30:43.965Z,44.07
2022-11-24T18:33:13.376Z,46.97
2022-11-24T18:35:44.026Z,39.70
2022-11-24T18:38:12.989Z,39.60
2022-11-24T18:40:42.447Z,38.50
2022-11-24T18:43:11.374Z,39.90
2022-11-24T18:45:40.555Z,41.97
2022-11-24T18:48:11.645Z,53.70
2022-11-24T18:50:46.202Z,43.93
2022-11-24T18:53:15.179Z,68.57
2022-11-24T18:55:44.079Z,43.13
2022-11-24T18:58:13.060Z,41.60
2022-11-24T19:00:43.955Z,94.33
2022-11-24T19:03:33.386Z,57.80
2022-11-24T19:06:09.924Z,46.83
2022-11-24T19:08:38.990Z,34.00
2022-11-24T19:11:22.937Z,37.93
2022-11-24T19:13:52.275Z,24.93
2022-11-24T19:16:22.508Z,37.47
2022-11-24T19:18:54.250Z,42.17
2022-11-24T19:21:24.945Z,34.77
2022-11-24T19:23:55.201Z,28.70
2022-11-24T19:26:30.635Z,23.97
2022-11-24T19:28:59.500Z,22.57
2022-11-24T19:31:28.414Z,32.43
2022-11-24T19:33:59.930Z,32.80
2022-11-24T19:37:00.411Z,40.70
2022-11-24T19:39:29.943Z,31.43
2022-11-24T19:41:58.741Z,28.00
2022-11-24T19:44:27.577Z,24.20
2022-11-24T19:46:58.412Z,32.10
2022-11-24T19:49:29.353Z,50.10
2022-11-24T19:52:03.200Z,31.77
2022-11-24T19:54:34.653Z,51.60
2022-11-24T19:57:04.788Z,45.87
2022-11-24T19:59:33.796Z,19.00
2022-11-24T20:02:03.012Z,23.17
2022-11-24T20:04:33.282Z,42.47
2022-11-24T20:07:04.247Z,25.60
2022-11-24T20:09:37.721Z,33.20
2022-11-24T20:12:07.436Z,26.03
2022-11-24T20:14:38.410Z,27.27
2022-11-24T20:17:07.446Z,31.47
2022-11-24T20:19:36.236Z,47.87
2022-11-24T20:22:10.021Z,42.30
2022-11-24T20:24:38.804Z,32.93
2022-11-24T20:27:07.510Z,21.07
2022-11-24T20:29:36.225Z,18.10
2022-11-24T20:32:06.187Z,25.67
2022-11-24T20:34:35.898Z,26.77
2022-11-24T20:37:04.861Z,31.47
2022-11-24T20:39:35.528Z,20.87
2022-11-24T20:42:04.918Z,16.57
2022-11-24T20:44:33.967Z,17.17
2022-11-24T20:47:05.192Z,15.10
2022-11-24T20:49:34.212Z,14.27
2022-11-24T20:52:03.294Z,15.67
2022-11-24T20:54:32.207Z,15.40
2022-11-24T20:57:02.467Z,19.47
2022-11-24T20:59:31.245Z,18.67
2022-11-24T21:02:12.147Z,18.40
2022-11-24T21:04:41.152Z,17.07
2022-11-24T21:07:16.214Z,16.67
2022-11-24T21:09:45.054Z,25.17
2022-11-24T21:12:15.307Z,23.27
2022-11-24T21:14:44.063Z,25.07
2022-11-24T21:17:14.199Z,21.50
2022-11-24T21:19:42.896Z,17.67
2022-11-24T21:22:11.677Z,14.90
2022-11-24T21:24:40.443Z,21.17
2022-11-24T21:27:46.389Z,21.53
2022-11-24T21:30:16.171Z,19.73
2022-11-24T21:32:46.829Z,18.27
2022-11-24T21:35:15.981Z,21.67
2022-11-24T21:37:45.229Z,19.37
2022-11-24T21:40:15.054Z,23.00
2022-11-24T21:42:45.384Z,17.57
2022-11-24T21:45:14.415Z,17.67
2022-11-24T21:47:43.584Z,17.17
2022-11-24T21:50:13.137Z,16.87
2022-11-24T21:52:41.876Z,22.10
2022-11-24T21:55:11.059Z,19.30
2022-11-24T21:57:39.828Z,18.50
2022-11-24T22:00:11.231Z,19.27
2022-11-24T22:02:40.009Z,16.63
2022-11-24T22:05:10.376Z,19.93
2022-11-24T22:07:39.258Z,16.67
2022-11-24T22:10:10.139Z,18.73
2022-11-24T22:12:38.841Z,19.10
2022-11-24T22:15:10.701Z,20.20
2022-11-24T22:17:39.448Z,15.50
2022-11-24T22:20:10.105Z,15.47
2022-11-24T22:22:38.777Z,18.23
2022-11-24T22:25:08.660Z,21.77
2022-11-24T22:27:37.390Z,12.33
2022-11-24T22:30:07.800Z,15.87
2022-11-24T22:32:38.030Z,15.23
2022-11-24T22:35:08.578Z,12.27
2022-11-24T22:37:37.468Z,38.93
2022-11-24T22:40:07.691Z,14.57
2022-11-24T22:42:36.426Z,10.00
2022-11-24T22:45:06.029Z,9.30
2022-11-24T22:47:34.739Z,10.77
2022-11-24T22:50:05.756Z,11.17
2022-11-24T22:52:34.586Z,12.67
2022-11-24T22:55:03.328Z,10.53
2022-11-24T22:57:32.164Z,15.27
2022-11-24T23:00:00.845Z,9.23
2022-11-24T23:02:30.199Z,5.20
2022-11-24T23:04:58.945Z,8.27
2022-11-24T23:07:29.177Z,7.87
2022-11-24T23:09:58.079Z,9.43
2022-11-24T23:12:26.848Z,8.97
2022-11-24T23:14:55.540Z,8.97
2022-11-24T23:17:24.260Z,9.13
2022-11-24T23:19:52.975Z,10.00
2022-11-24T23:22:21.815Z,6.57
2022-11-24T23:24:51.952Z,10.77
2022-11-24T23:27:20.677Z,8.67
2022-11-24T23:29:49.378Z,5.80
2022-11-24T23:32:18.081Z,7.97
2022-11-24T23:34:46.787Z,9.27
2022-11-24T23:37:15.686Z,8.20
2022-11-24T23:39:44.346Z,11.40
2022-11-24T23:42:14.405Z,7.60
2022-11-24T23:44:43.194Z,7.43
2022-11-24T23:47:11.940Z,8.07
2022-11-24T23:49:40.600Z,8.23
2022-11-24T23:52:09.298Z,7.17
2022-11-24T23:54:38.022Z,9.97
2022-11-24T23:57:06.717Z,6.70
2022-11-24T23:59:36.817Z,7.43
